createdAt,value
2018-05-13T00:00:59.487Z,1005.33
2018-05-13T00:02:08.890Z,1005.28
2018-05-13T00:03:17.549Z,1005.25
2018-05-13T00:04:27.014Z,1005.24
2018-05-13T00:05:36.171Z,1005.23
2018-05-13T00:06:45.618Z,1005.23
2018-05-13T00:07:55.279Z,1005.28
2018-05-13T00:09:04.707Z,1005.23
2018-05-13T00:10:14.700Z,1005.24
2018-05-13T00:11:23.883Z,1005.25
2018-05-13T00:12:33.310Z,1005.26
2018-05-13T00:13:42.991Z,1005.26
2018-05-13T00:14:52.173Z,1005.29
2018-05-13T00:16:02.119Z,1005.28
2018-05-13T00:17:11.102Z,1005.28
2018-05-13T00:18:20.260Z,1005.31
2018-05-13T00:19:29.450Z,1005.29
2018-05-13T00:20:39.147Z,1005.3
2018-05-13T00:21:49.129Z,1005.31
2018-05-13T00:22:58.839Z,1005.31
2018-05-13T00:24:08.516Z,1005.26
2018-05-13T00:25:17.965Z,1005.27
2018-05-13T00:26:27.406Z,1005.27
2018-05-13T00:27:36.592Z,1005.29
2018-05-13T00:28:46.007Z,1005.29
2018-05-13T00:29:54.654Z,1005.23
2018-05-13T00:31:03.823Z,1005.24
2018-05-13T00:32:12.992Z,1005.24
2018-05-13T00:33:22.239Z,1005.26
2018-05-13T00:34:32.106Z,1005.24
2018-05-13T00:35:41.260Z,1005.27
2018-05-13T00:36:51.219Z,1005.25
2018-05-13T00:38:00.644Z,1005.28
2018-05-13T00:39:10.063Z,1005.27
2018-05-13T00:40:19.535Z,1005.22
2018-05-13T00:41:29.299Z,1005.24
2018-05-13T00:42:39.040Z,1005.24
2018-05-13T00:43:50.258Z,1005.21
2018-05-13T00:44:59.944Z,1005.23
2018-05-13T00:46:09.666Z,1005.23
2018-05-13T00:47:18.578Z,1005.21
2018-05-13T00:48:28.257Z,1005.24
2018-05-13T00:49:38.483Z,1005.26
2018-05-13T00:50:47.430Z,1005.26
2018-05-13T00:51:56.586Z,1005.24
2018-05-13T00:53:06.052Z,1005.28
2018-05-13T00:54:16.011Z,1005.32
2018-05-13T00:55:25.448Z,1005.32
2018-05-13T00:56:35.835Z,1005.28
2018-05-13T00:57:45.971Z,1005.29
2018-05-13T00:58:55.621Z,1005.32
2018-05-13T01:00:05.141Z,1005.33
2018-05-13T01:01:14.647Z,1005.36
2018-05-13T01:02:25.262Z,1005.46
2018-05-13T01:03:34.554Z,1005.44
2018-05-13T01:04:44.538Z,1005.38
2018-05-13T01:05:54.613Z,1005.31
2018-05-13T01:07:04.553Z,1005.35
2018-05-13T01:08:13.723Z,1005.41
2018-05-13T01:09:22.908Z,1005.46
2018-05-13T01:10:32.104Z,1005.37
2018-05-13T01:11:41.301Z,1005.33
2018-05-13T01:12:50.511Z,1005.4
2018-05-13T01:13:59.684Z,1005.47
2018-05-13T01:15:08.884Z,1005.48
2018-05-13T01:16:17.579Z,1005.44
2018-05-13T01:17:27.015Z,1005.43
2018-05-13T01:18:36.248Z,1005.48
2018-05-13T01:19:46.009Z,1005.47
2018-05-13T01:20:54.921Z,1005.47
2018-05-13T01:22:03.839Z,1005.46
2018-05-13T01:23:13.012Z,1005.48
2018-05-13T01:24:22.491Z,1005.44
2018-05-13T01:25:32.196Z,1005.45
2018-05-13T01:26:41.424Z,1005.46
2018-05-13T01:27:50.849Z,1005.46
2018-05-13T01:29:00.792Z,1005.42
2018-05-13T01:30:10.758Z,1005.44
2018-05-13T01:31:20.466Z,1005.42
2018-05-13T01:32:29.628Z,1005.4
2018-05-13T01:33:39.338Z,1005.38
2018-05-13T01:34:48.505Z,1005.38
2018-05-13T01:35:57.928Z,1005.34
2018-05-13T01:37:07.621Z,1005.36
2018-05-13T01:38:16.781Z,1005.42
2018-05-13T01:39:26.737Z,1005.34
2018-05-13T01:40:35.644Z,1005.34
2018-05-13T01:41:45.162Z,1005.37
2018-05-13T01:42:54.599Z,1005.33
2018-05-13T01:44:03.517Z,1005.32
2018-05-13T01:45:12.697Z,1005.37
2018-05-13T01:46:21.870Z,1005.36
2018-05-13T01:47:31.011Z,1005.38
2018-05-13T01:48:40.432Z,1005.37
2018-05-13T01:49:50.373Z,1005.32
2018-05-13T01:51:00.311Z,1005.27
2018-05-13T01:52:09.268Z,1005.32
2018-05-13T01:53:18.429Z,1005.32
2018-05-13T01:54:27.875Z,1005.38
2018-05-13T01:55:37.042Z,1005.41
2018-05-13T01:56:46.723Z,1005.42
2018-05-13T01:57:56.423Z,1005.36
2018-05-13T01:59:06.101Z,1005.33
2018-05-13T02:00:15.792Z,1005.36
2018-05-13T02:01:25.497Z,1005.3
2018-05-13T02:02:34.974Z,1005.35
2018-05-13T02:03:43.897Z,1005.41
2018-05-13T02:04:53.065Z,1005.44
2018-05-13T02:06:02.521Z,1005.44
2018-05-13T02:07:11.699Z,1005.43
2018-05-13T02:08:21.145Z,1005.39
2018-05-13T02:09:30.860Z,1005.4
2018-05-13T02:10:40.548Z,1005.34
2018-05-13T02:11:49.448Z,1005.26
2018-05-13T02:12:58.859Z,1005.22
2018-05-13T02:14:08.082Z,1005.2
2018-05-13T02:15:17.754Z,1005.2
2018-05-13T02:16:27.189Z,1005.19
2018-05-13T02:17:37.196Z,1005.18
2018-05-13T02:18:46.621Z,1005.17
2018-05-13T02:19:56.042Z,1005.16
2018-05-13T02:21:05.462Z,1005.16
2018-05-13T02:22:14.679Z,1005.15
2018-05-13T02:23:23.914Z,1005.15
2018-05-13T02:24:33.623Z,1005.25
2018-05-13T02:25:42.802Z,1005.28
2018-05-13T02:26:52.586Z,1005.34
2018-05-13T02:28:01.520Z,1005.35
2018-05-13T02:29:10.667Z,1005.31
2018-05-13T02:30:20.103Z,1005.28
2018-05-13T02:31:30.072Z,1005.28
2018-05-13T02:32:39.257Z,1005.27
2018-05-13T02:33:48.704Z,1005.35
2018-05-13T02:34:57.865Z,1005.42
2018-05-13T02:36:07.539Z,1005.45
2018-05-13T02:37:16.976Z,1005.5
2018-05-13T02:38:26.932Z,1005.49
2018-05-13T02:39:36.378Z,1005.54
2018-05-13T02:40:46.407Z,1005.52
2018-05-13T02:41:55.580Z,1005.54
2018-05-13T02:45:49.102Z,1005.57
2018-05-13T02:46:58.805Z,1005.51
2018-05-13T02:48:08.246Z,1005.58
2018-05-13T02:49:17.963Z,1005.57
2018-05-13T02:50:27.660Z,1005.58
2018-05-13T02:51:37.370Z,1005.59
2018-05-13T02:52:46.015Z,1005.6
2018-05-13T02:53:54.999Z,1005.58
2018-05-13T02:55:04.774Z,1005.61
2018-05-13T02:56:14.196Z,1005.56
2018-05-13T02:57:23.644Z,1005.59
2018-05-13T02:58:33.067Z,1005.58
2018-05-13T02:59:43.031Z,1005.59
2018-05-13T03:00:52.216Z,1005.6
2018-05-13T03:02:01.427Z,1005.63
2018-05-13T03:03:11.390Z,1005.66
2018-05-13T03:04:20.568Z,1005.65
2018-05-13T03:05:29.488Z,1005.67
2018-05-13T03:06:39.458Z,1005.71
2018-05-13T03:07:48.880Z,1005.76
2018-05-13T03:08:58.058Z,1005.74
2018-05-13T03:10:07.741Z,1005.7
2018-05-13T03:11:16.965Z,1005.67
2018-05-13T03:12:26.677Z,1005.6
2018-05-13T03:13:35.868Z,1005.57
2018-05-13T03:14:45.296Z,1005.62
2018-05-13T03:15:55.003Z,1005.61
2018-05-13T03:17:04.461Z,1005.69
2018-05-13T03:18:13.627Z,1005.72
2018-05-13T03:19:23.301Z,1005.7
2018-05-13T03:20:33.250Z,1005.75
2018-05-13T03:21:42.739Z,1005.76
2018-05-13T03:22:51.909Z,1005.77
2018-05-13T03:24:01.091Z,1005.72
2018-05-13T03:25:10.266Z,1005.7
2018-05-13T03:26:19.952Z,1005.65
2018-05-13T03:27:28.867Z,1005.6
2018-05-13T03:28:38.070Z,1005.57
2018-05-13T03:29:47.499Z,1005.53
2018-05-13T03:30:57.195Z,1005.61
2018-05-13T03:32:06.906Z,1005.63
2018-05-13T03:33:16.140Z,1005.61
2018-05-13T03:34:25.570Z,1005.62
2018-05-13T03:35:34.988Z,1005.65
2018-05-13T03:36:44.176Z,1005.64
2018-05-13T03:37:53.359Z,1005.64
2018-05-13T03:39:03.042Z,1005.67
2018-05-13T03:40:12.723Z,1005.68
2018-05-13T03:41:21.640Z,1005.65
2018-05-13T03:42:30.836Z,1005.65
2018-05-13T03:43:40.510Z,1005.64
2018-05-13T03:44:50.482Z,1005.63
2018-05-13T03:45:59.918Z,1005.56
2018-05-13T03:47:09.350Z,1005.57
2018-05-13T03:48:18.797Z,1005.57
2018-05-13T03:49:28.496Z,1005.56
2018-05-13T03:50:38.216Z,1005.56
2018-05-13T03:51:47.898Z,1005.58
2018-05-13T03:52:57.341Z,1005.63
2018-05-13T03:54:07.031Z,1005.65
2018-05-13T03:55:16.210Z,1005.62
2018-05-13T03:56:24.845Z,1005.71
2018-05-13T03:57:34.323Z,1005.71
2018-05-13T03:58:44.010Z,1005.73
2018-05-13T03:59:53.691Z,1005.74
2018-05-13T04:01:03.364Z,1005.7
2018-05-13T04:02:12.788Z,1005.74
2018-05-13T04:03:22.263Z,1005.67
2018-05-13T04:04:31.463Z,1005.69
2018-05-13T04:05:40.890Z,1005.7
2018-05-13T04:06:50.666Z,1005.66
2018-05-13T04:08:00.087Z,1005.69
2018-05-13T04:09:09.017Z,1005.71
2018-05-13T04:10:18.181Z,1005.69
2018-05-13T04:11:27.604Z,1005.7
2018-05-13T04:12:37.019Z,1005.66
2018-05-13T04:13:45.921Z,1005.65
2018-05-13T04:14:55.428Z,1005.64
2018-05-13T04:16:04.873Z,1005.67
2018-05-13T04:17:14.285Z,1005.66
2018-05-13T04:18:23.454Z,1005.67
2018-05-13T04:19:32.627Z,1005.65
2018-05-13T04:20:42.319Z,1005.59
2018-05-13T04:21:51.771Z,1005.6
2018-05-13T04:23:01.004Z,1005.56
2018-05-13T04:24:10.730Z,1005.54
2018-05-13T04:25:20.410Z,1005.51
2018-05-13T04:26:29.585Z,1005.54
2018-05-13T04:27:39.538Z,1005.54
2018-05-13T04:28:48.957Z,1005.52
2018-05-13T04:29:58.147Z,1005.55
2018-05-13T04:31:07.298Z,1005.57
2018-05-13T04:32:16.978Z,1005.61
2018-05-13T04:33:26.432Z,1005.56
2018-05-13T04:34:36.099Z,1005.55
2018-05-13T04:35:45.551Z,1005.5
2018-05-13T04:36:55.243Z,1005.51
2018-05-13T04:38:04.671Z,1005.43
2018-05-13T04:39:13.876Z,1005.48
2018-05-13T04:40:23.581Z,1005.45
2018-05-13T04:41:33.005Z,1005.47
2018-05-13T04:42:42.443Z,1005.48
2018-05-13T04:43:51.852Z,1005.48
2018-05-13T04:45:01.061Z,1005.43
2018-05-13T04:46:10.767Z,1005.44
2018-05-13T04:47:20.463Z,1005.42
2018-05-13T04:48:30.403Z,1005.45
2018-05-13T04:49:39.569Z,1005.46
2018-05-13T04:50:49.047Z,1005.51
2018-05-13T04:51:58.227Z,1005.49
2018-05-13T04:53:07.137Z,1005.54
2018-05-13T04:54:16.821Z,1005.53
2018-05-13T04:55:26.000Z,1005.53
2018-05-13T04:56:35.165Z,1005.58
2018-05-13T04:57:44.406Z,1005.6
2018-05-13T04:58:53.852Z,1005.62
2018-05-13T05:00:03.614Z,1005.64
2018-05-13T05:01:13.051Z,1005.73
2018-05-13T05:02:22.716Z,1005.77
2018-05-13T05:03:31.915Z,1005.79
2018-05-13T05:04:41.365Z,1005.85
2018-05-13T05:05:50.777Z,1005.84
2018-05-13T05:07:00.189Z,1005.88
2018-05-13T05:08:09.391Z,1005.96
2018-05-13T05:09:18.890Z,1005.95
2018-05-13T05:10:28.307Z,1006.01
2018-05-13T05:11:37.220Z,1006.03
2018-05-13T05:12:46.663Z,1006.06
2018-05-13T05:13:56.119Z,1006.12
2018-05-13T05:15:05.287Z,1006.12
2018-05-13T05:16:14.567Z,1006.13
2018-05-13T05:17:23.765Z,1006.19
2018-05-13T05:18:32.917Z,1006.25
2018-05-13T05:19:42.093Z,1006.33
2018-05-13T05:20:52.078Z,1006.29
2018-05-13T05:22:01.817Z,1006.35
2018-05-13T05:23:11.247Z,1006.34
2018-05-13T05:24:20.434Z,1006.33
2018-05-13T05:25:29.725Z,1006.36
2018-05-13T05:26:39.695Z,1006.41
2018-05-13T05:27:49.444Z,1006.43
2018-05-13T05:28:59.344Z,1006.44
2018-05-13T05:30:08.514Z,1006.45
2018-05-13T05:31:17.967Z,1006.48
2018-05-13T05:32:27.381Z,1006.47
2018-05-13T05:33:36.802Z,1006.5
2018-05-13T05:34:46.302Z,1006.45
2018-05-13T05:35:56.170Z,1006.48
2018-05-13T05:37:05.855Z,1006.51
2018-05-13T05:38:15.302Z,1006.52
2018-05-13T05:39:24.992Z,1006.54
2018-05-13T05:40:33.907Z,1006.61
2018-05-13T05:41:43.655Z,1006.62
2018-05-13T05:42:52.840Z,1006.68
2018-05-13T05:44:02.285Z,1006.68
2018-05-13T05:45:11.197Z,1006.66
2018-05-13T05:46:20.905Z,1006.69
2018-05-13T05:47:30.139Z,1006.76
2018-05-13T05:48:39.555Z,1006.87
2018-05-13T05:49:49.246Z,1006.89
2018-05-13T05:50:58.674Z,1006.92
2018-05-13T05:52:07.319Z,1006.9
2018-05-13T05:53:17.025Z,1006.9
2018-05-13T05:54:26.712Z,1006.92
2018-05-13T05:55:36.514Z,1007
2018-05-13T05:56:45.701Z,1007.11
2018-05-13T05:57:55.171Z,1007.1
2018-05-13T05:59:04.606Z,1007.06
2018-05-13T06:00:14.538Z,1007.03
2018-05-13T06:01:23.692Z,1007
2018-05-13T06:02:33.126Z,1006.95
2018-05-13T06:03:42.292Z,1006.98
2018-05-13T06:04:51.503Z,1006.91
2018-05-13T06:06:00.664Z,1006.79
2018-05-13T06:07:10.078Z,1006.66
2018-05-13T06:08:20.059Z,1006.61
2018-05-13T06:09:30.012Z,1006.61
2018-05-13T06:10:39.681Z,1006.63
2018-05-13T06:11:48.588Z,1006.68
2018-05-13T06:12:57.753Z,1006.64
2018-05-13T06:14:06.972Z,1006.65
2018-05-13T06:15:16.657Z,1006.64
2018-05-13T06:16:26.081Z,1006.62
2018-05-13T06:17:34.997Z,1006.59
2018-05-13T06:18:44.444Z,1006.56
2018-05-13T06:19:53.614Z,1006.55
2018-05-13T06:21:02.786Z,1006.56
2018-05-13T06:22:12.465Z,1006.5
2018-05-13T06:23:21.899Z,1006.48
2018-05-13T06:24:31.879Z,1006.49
2018-05-13T06:25:41.569Z,1006.51
2018-05-13T06:26:50.480Z,1006.52
2018-05-13T06:27:59.633Z,1006.55
2018-05-13T06:29:09.610Z,1006.6
2018-05-13T06:30:18.773Z,1006.6
2018-05-13T06:31:28.273Z,1006.6
2018-05-13T06:32:37.172Z,1006.58
2018-05-13T06:33:46.372Z,1006.57
2018-05-13T06:34:55.832Z,1006.59
2018-05-13T06:36:05.524Z,1006.57
2018-05-13T06:37:14.699Z,1006.55
2018-05-13T06:38:23.905Z,1006.52
2018-05-13T06:39:33.656Z,1006.5
2018-05-13T06:40:43.721Z,1006.54
2018-05-13T06:41:52.641Z,1006.5
2018-05-13T06:43:02.313Z,1006.55
2018-05-13T06:44:11.777Z,1006.51
2018-05-13T06:45:20.972Z,1006.54
2018-05-13T06:46:30.443Z,1006.55
2018-05-13T06:47:40.418Z,1006.56
2018-05-13T06:48:49.905Z,1006.6
2018-05-13T06:49:59.611Z,1006.63
2018-05-13T06:51:09.402Z,1006.69
2018-05-13T06:52:19.504Z,1006.7
2018-05-13T06:53:28.939Z,1006.69
2018-05-13T06:54:38.125Z,1006.72
2018-05-13T06:55:47.843Z,1006.72
2018-05-13T06:56:57.813Z,1006.74
2018-05-13T06:58:07.580Z,1006.73
2018-05-13T06:59:17.022Z,1006.67
2018-05-13T07:00:26.731Z,1006.67
2018-05-13T07:01:36.163Z,1006.75
2018-05-13T07:02:45.675Z,1006.79
2018-05-13T07:03:55.760Z,1006.86
2018-05-13T07:05:05.254Z,1006.89
2018-05-13T07:06:14.696Z,1006.87
2018-05-13T07:07:24.148Z,1006.88
2018-05-13T07:08:33.322Z,1006.88
2018-05-13T07:09:43.023Z,1006.95
2018-05-13T07:10:52.971Z,1006.92
2018-05-13T07:12:02.676Z,1006.93
2018-05-13T07:13:12.449Z,1006.9
2018-05-13T07:14:22.904Z,1006.88
2018-05-13T07:15:32.469Z,1006.89
2018-05-13T07:16:41.648Z,1006.89
2018-05-13T07:17:52.338Z,1006.93
2018-05-13T07:19:01.824Z,1006.97
2018-05-13T07:20:12.156Z,1007.04
2018-05-13T07:21:21.069Z,1007.07
2018-05-13T07:22:30.667Z,1007.14
2018-05-13T07:23:39.868Z,1007.16
2018-05-13T07:24:49.319Z,1007.18
2018-05-13T07:25:58.905Z,1007.23
2018-05-13T07:27:08.175Z,1007.31
2018-05-13T07:28:17.599Z,1007.37
2018-05-13T07:29:27.335Z,1007.46
2018-05-13T07:30:36.806Z,1007.53
2018-05-13T07:31:45.985Z,1007.58
2018-05-13T07:32:54.880Z,1007.63
2018-05-13T07:34:04.395Z,1007.73
2018-05-13T07:35:14.397Z,1007.8
2018-05-13T07:36:23.585Z,1007.85
2018-05-13T07:37:32.746Z,1007.87
2018-05-13T07:38:42.171Z,1007.81
2018-05-13T07:39:51.474Z,1007.73
2018-05-13T07:41:01.110Z,1007.64
2018-05-13T07:42:10.824Z,1007.56
2018-05-13T07:43:20.286Z,1007.54
2018-05-13T07:44:30.767Z,1007.54
2018-05-13T07:45:39.994Z,1007.56
2018-05-13T07:46:48.745Z,1007.56
2018-05-13T07:47:58.290Z,1007.48
2018-05-13T07:49:08.308Z,1007.36
2018-05-13T07:50:18.012Z,1007.3
2018-05-13T07:51:27.443Z,1007.29
2018-05-13T07:52:37.145Z,1007.33
2018-05-13T07:53:46.336Z,1007.4
2018-05-13T07:54:55.591Z,1007.45
2018-05-13T07:56:05.080Z,1007.56
2018-05-13T07:57:14.498Z,1007.62
2018-05-13T07:58:24.192Z,1007.64
2018-05-13T07:59:33.897Z,1007.68
2018-05-13T08:00:43.077Z,1007.63
2018-05-13T08:01:52.764Z,1007.57
2018-05-13T08:03:02.171Z,1007.5
2018-05-13T08:04:11.622Z,1007.39
2018-05-13T08:05:20.541Z,1007.4
2018-05-13T08:06:29.703Z,1007.43
2018-05-13T08:07:39.388Z,1007.47
2018-05-13T08:08:49.378Z,1007.42
2018-05-13T08:09:58.538Z,1007.4
2018-05-13T08:11:07.738Z,1007.32
2018-05-13T08:12:17.160Z,1007.33
2018-05-13T08:13:26.652Z,1007.38
2018-05-13T08:14:35.838Z,1007.41
2018-05-13T08:15:45.279Z,1007.44
2018-05-13T08:16:54.715Z,1007.42
2018-05-13T08:18:03.630Z,1007.43
2018-05-13T08:19:13.070Z,1007.41
2018-05-13T08:20:22.325Z,1007.34
2018-05-13T08:21:32.325Z,1007.27
2018-05-13T08:22:41.802Z,1007.18
2018-05-13T08:23:51.014Z,1007.08
2018-05-13T08:24:59.920Z,1006.98
2018-05-13T08:26:09.604Z,1006.91
2018-05-13T08:27:19.292Z,1006.88
2018-05-13T08:28:28.479Z,1006.91
2018-05-13T08:29:38.188Z,1006.91
2018-05-13T08:30:47.612Z,1006.94
2018-05-13T08:31:57.289Z,1006.98
2018-05-13T08:33:06.723Z,1007.06
2018-05-13T08:34:16.398Z,1007.14
2018-05-13T08:35:25.836Z,1007.19
2018-05-13T08:36:35.253Z,1007.25
2018-05-13T08:37:45.207Z,1007.3
2018-05-13T08:38:54.952Z,1007.4
2018-05-13T08:40:04.384Z,1007.5
2018-05-13T08:41:13.852Z,1007.57
2018-05-13T08:42:23.332Z,1007.63
2018-05-13T08:43:33.060Z,1007.7
2018-05-13T08:44:42.288Z,1007.71
2018-05-13T08:45:52.005Z,1007.74
2018-05-13T08:47:01.180Z,1007.74
2018-05-13T08:48:11.130Z,1007.72
2018-05-13T08:49:20.300Z,1007.72
2018-05-13T08:50:29.723Z,1007.74
2018-05-13T08:51:39.167Z,1007.69
2018-05-13T08:52:48.681Z,1007.72
2018-05-13T08:53:58.218Z,1007.72
2018-05-13T08:55:07.805Z,1007.78
2018-05-13T08:56:16.775Z,1007.81
2018-05-13T08:57:27.292Z,1007.83
2018-05-13T08:58:36.989Z,1007.82
2018-05-13T08:59:46.221Z,1007.8
2018-05-13T09:00:55.729Z,1007.81
2018-05-13T09:02:05.395Z,1007.83
2018-05-13T09:03:14.817Z,1007.78
2018-05-13T09:04:23.729Z,1007.8
2018-05-13T09:05:32.360Z,1007.77
2018-05-13T09:06:41.539Z,1007.72
2018-05-13T09:07:51.219Z,1007.75
2018-05-13T09:09:00.898Z,1007.72
2018-05-13T09:10:10.894Z,1007.75
2018-05-13T09:11:20.042Z,1007.73
2018-05-13T09:12:29.716Z,1007.74
2018-05-13T09:13:39.395Z,1007.76
2018-05-13T09:14:48.817Z,1007.8
2018-05-13T09:15:58.493Z,1007.84
2018-05-13T09:17:07.949Z,1007.89
2018-05-13T09:18:17.992Z,1007.91
2018-05-13T09:19:27.668Z,1007.91
2018-05-13T09:20:37.445Z,1007.91
2018-05-13T09:21:47.361Z,1007.91
2018-05-13T09:22:57.072Z,1007.98
2018-05-13T09:24:06.317Z,1007.92
2018-05-13T09:25:16.014Z,1007.98
2018-05-13T09:26:24.964Z,1007.99
2018-05-13T09:27:34.448Z,1008
2018-05-13T09:28:43.942Z,1007.98
2018-05-13T09:29:53.903Z,1007.99
2018-05-13T09:31:03.342Z,1007.98
2018-05-13T09:32:13.017Z,1007.93
2018-05-13T09:33:21.676Z,1007.94
2018-05-13T09:34:31.611Z,1007.96
2018-05-13T09:35:41.056Z,1007.96
2018-05-13T09:36:50.730Z,1007.98
2018-05-13T09:37:59.888Z,1008.01
2018-05-13T09:39:08.533Z,1008.05
2018-05-13T09:40:17.959Z,1008.08
2018-05-13T09:41:27.371Z,1008.09
2018-05-13T09:42:37.053Z,1008.15
2018-05-13T09:43:46.504Z,1008.13
2018-05-13T09:44:55.673Z,1008.11
2018-05-13T09:46:04.871Z,1008.14
2018-05-13T09:47:14.064Z,1008.07
2018-05-13T09:48:23.240Z,1008.1
2018-05-13T09:49:32.694Z,1008.05
2018-05-13T09:50:42.200Z,1008.02
2018-05-13T09:51:51.420Z,1007.98
2018-05-13T09:53:00.587Z,1008.01
2018-05-13T09:54:10.019Z,1008
2018-05-13T09:55:19.720Z,1007.97
2018-05-13T09:56:29.389Z,1008
2018-05-13T09:57:38.359Z,1007.95
2018-05-13T09:58:47.706Z,1007.92
2018-05-13T09:59:57.128Z,1007.89
2018-05-13T10:01:06.934Z,1007.82
2018-05-13T10:02:15.861Z,1007.83
2018-05-13T10:03:25.591Z,1007.73
2018-05-13T10:04:35.329Z,1007.75
2018-05-13T10:05:44.501Z,1007.73
2018-05-13T10:06:54.442Z,1007.66
2018-05-13T10:08:03.610Z,1007.64
2018-05-13T10:09:13.293Z,1007.64
2018-05-13T10:10:23.001Z,1007.62
2018-05-13T10:11:32.427Z,1007.64
2018-05-13T10:12:42.193Z,1007.67
2018-05-13T10:13:51.882Z,1007.69
2018-05-13T10:15:01.293Z,1007.78
2018-05-13T10:16:10.737Z,1007.83
2018-05-13T10:17:20.697Z,1007.85
2018-05-13T10:18:29.860Z,1007.89
2018-05-13T10:19:39.046Z,1007.94
2018-05-13T10:20:48.757Z,1007.97
2018-05-13T10:21:58.235Z,1008.02
2018-05-13T10:23:07.694Z,1007.99
2018-05-13T10:24:17.456Z,1008.01
2018-05-13T10:25:26.877Z,1008
2018-05-13T10:26:36.092Z,1007.94
2018-05-13T10:27:45.281Z,1007.91
2018-05-13T10:28:54.438Z,1007.96
2018-05-13T10:30:04.178Z,1007.98
2018-05-13T10:31:14.115Z,1008.02
2018-05-13T10:32:23.555Z,1008.04
2018-05-13T10:33:32.714Z,1008.08
2018-05-13T10:34:42.162Z,1008.14
2018-05-13T10:35:51.584Z,1008.14
2018-05-13T10:37:01.559Z,1008.13
2018-05-13T10:38:11.000Z,1008.14
2018-05-13T10:39:19.658Z,1008.14
2018-05-13T10:40:29.367Z,1008.09
2018-05-13T10:41:38.034Z,1008.12
2018-05-13T10:42:47.479Z,1008.09
2018-05-13T10:43:56.916Z,1008.05
2018-05-13T10:45:06.382Z,1008.12
2018-05-13T10:46:16.383Z,1008.14
2018-05-13T10:47:26.059Z,1008.08
2018-05-13T10:48:35.487Z,1008.05
2018-05-13T10:49:45.163Z,1008.1
2018-05-13T10:50:54.844Z,1008.06
2018-05-13T10:52:04.039Z,1007.99
2018-05-13T10:53:13.698Z,1008.01
2018-05-13T10:54:23.112Z,1007.96
2018-05-13T10:55:31.752Z,1007.96
2018-05-13T10:56:41.441Z,1008.02
2018-05-13T10:57:50.667Z,1008.04
2018-05-13T10:59:00.575Z,1008.06
2018-05-13T11:00:09.741Z,1008.06
2018-05-13T11:01:19.481Z,1008.07
2018-05-13T11:02:28.966Z,1008.1
2018-05-13T11:03:38.412Z,1008.15
2018-05-13T11:04:47.882Z,1008.17
2018-05-13T11:05:57.730Z,1008.24
2018-05-13T11:07:07.466Z,1008.21
2018-05-13T11:08:16.129Z,1008.25
2018-05-13T11:09:25.596Z,1008.3
2018-05-13T11:10:34.784Z,1008.27
2018-05-13T11:11:44.535Z,1008.21
2018-05-13T11:12:53.778Z,1008.29
2018-05-13T11:14:03.484Z,1008.24
2018-05-13T11:15:12.174Z,1008.16
2018-05-13T11:16:21.135Z,1008.11
2018-05-13T11:17:30.359Z,1008.12
2018-05-13T11:18:40.095Z,1008.09
2018-05-13T11:19:49.584Z,1008.07
2018-05-13T11:20:58.529Z,1008.08
2018-05-13T11:22:07.162Z,1008.09
2018-05-13T11:23:16.877Z,1008.12
2018-05-13T11:24:26.307Z,1008.18
2018-05-13T11:25:36.031Z,1008.22
2018-05-13T11:26:45.040Z,1008.2
2018-05-13T11:27:55.138Z,1008.22
2018-05-13T11:29:04.619Z,1008.18
2018-05-13T11:30:13.773Z,1008.19
2018-05-13T11:31:23.654Z,1008.14
2018-05-13T11:32:33.328Z,1008.09
2018-05-13T11:33:42.299Z,1008.04
2018-05-13T11:34:52.571Z,1008.12
2018-05-13T11:36:01.500Z,1008.08
2018-05-13T11:37:10.672Z,1008.04
2018-05-13T11:38:20.115Z,1008.06
2018-05-13T11:39:29.364Z,1008
2018-05-13T11:40:39.319Z,1007.98
2018-05-13T11:41:48.785Z,1007.92
2018-05-13T11:42:57.950Z,1007.9
2018-05-13T11:44:07.128Z,1007.87
2018-05-13T11:45:16.985Z,1007.8
2018-05-13T11:46:26.422Z,1007.81
2018-05-13T11:47:36.540Z,1007.83
2018-05-13T11:48:45.975Z,1007.84
2018-05-13T11:49:55.439Z,1007.86
2018-05-13T11:51:04.870Z,1007.92
2018-05-13T11:52:14.065Z,1007.94
2018-05-13T11:53:23.821Z,1008
2018-05-13T11:54:33.262Z,1008.02
2018-05-13T11:55:42.686Z,1008.02
2018-05-13T11:56:52.400Z,1008.04
2018-05-13T11:58:01.830Z,1008.03
2018-05-13T11:59:11.608Z,1008.05
2018-05-13T12:00:21.308Z,1008.07
2018-05-13T12:01:30.735Z,1008.09
2018-05-13T12:02:39.947Z,1008.06
2018-05-13T12:03:49.132Z,1008.1
2018-05-13T12:04:58.576Z,1008.13
2018-05-13T12:06:08.549Z,1008.12
2018-05-13T12:07:18.019Z,1008.08
2018-05-13T12:08:27.523Z,1008.03
2018-05-13T12:09:37.021Z,1008.03
2018-05-13T12:10:46.226Z,1007.98
2018-05-13T12:11:55.416Z,1007.96
2018-05-13T12:13:04.603Z,1008
2018-05-13T12:14:14.059Z,1007.95
2018-05-13T12:15:23.531Z,1007.99
2018-05-13T12:16:33.228Z,1008.03
2018-05-13T12:17:42.400Z,1008.07
2018-05-13T12:18:51.829Z,1008.08
2018-05-13T12:20:00.489Z,1008.11
2018-05-13T12:21:10.077Z,1008.16
2018-05-13T12:22:19.879Z,1008.16
2018-05-13T12:23:29.585Z,1008.15
2018-05-13T12:24:39.306Z,1008.14
2018-05-13T12:25:48.806Z,1008.11
2018-05-13T12:26:58.537Z,1008.13
2018-05-13T12:28:07.540Z,1008.1
2018-05-13T12:29:16.822Z,1008.08
2018-05-13T12:30:26.376Z,1008.04
2018-05-13T12:31:36.094Z,1008.01
2018-05-13T12:32:45.273Z,1008.01
2018-05-13T12:33:54.266Z,1008
2018-05-13T12:35:03.517Z,1007.99
2018-05-13T12:36:13.241Z,1007.95
2018-05-13T12:37:22.442Z,1007.92
2018-05-13T12:38:31.930Z,1007.87
2018-05-13T12:39:41.122Z,1007.86
2018-05-13T12:40:50.879Z,1007.86
2018-05-13T12:42:00.821Z,1007.87
2018-05-13T12:43:10.492Z,1007.92
2018-05-13T12:44:19.930Z,1007.95
2018-05-13T12:45:29.105Z,1007.96
2018-05-13T12:46:39.047Z,1007.91
2018-05-13T12:47:48.255Z,1007.84
2018-05-13T12:48:57.673Z,1007.87
2018-05-13T12:50:07.132Z,1007.86
2018-05-13T12:51:17.071Z,1007.89
2018-05-13T12:52:26.787Z,1007.87
2018-05-13T12:53:35.448Z,1007.89
2018-05-13T12:54:44.865Z,1007.85
2018-05-13T12:55:54.539Z,1007.89
2018-05-13T12:57:04.506Z,1007.89
2018-05-13T12:58:13.680Z,1007.87
2018-05-13T12:59:23.505Z,1007.89
2018-05-13T13:00:33.443Z,1007.88
2018-05-13T13:01:42.597Z,1007.89
2018-05-13T13:02:51.762Z,1007.89
2018-05-13T13:04:01.197Z,1007.89
2018-05-13T13:05:10.621Z,1007.9
2018-05-13T13:06:20.582Z,1007.86
2018-05-13T13:07:30.271Z,1007.74
2018-05-13T13:08:39.583Z,1007.73
2018-05-13T13:09:48.760Z,1007.7
2018-05-13T13:10:58.437Z,1007.7
2018-05-13T13:12:07.606Z,1007.75
2018-05-13T13:13:17.031Z,1007.75
2018-05-13T13:14:26.747Z,1007.72
2018-05-13T13:15:35.918Z,1007.72
2018-05-13T13:16:45.115Z,1007.66
2018-05-13T13:17:54.554Z,1007.61
2018-05-13T13:19:03.976Z,1007.59
2018-05-13T13:20:13.700Z,1007.51
2018-05-13T13:21:23.151Z,1007.51
2018-05-13T13:22:31.832Z,1007.52
2018-05-13T13:23:41.028Z,1007.46
2018-05-13T13:24:50.518Z,1007.47
2018-05-13T13:26:00.055Z,1007.43
2018-05-13T13:27:09.173Z,1007.38
2018-05-13T13:28:18.659Z,1007.35
2018-05-13T13:29:27.831Z,1007.36
2018-05-13T13:30:37.356Z,1007.3
2018-05-13T13:31:47.074Z,1007.26
2018-05-13T13:32:56.831Z,1007.26
2018-05-13T13:34:07.152Z,1007.25
2018-05-13T13:35:16.728Z,1007.28
2018-05-13T13:36:25.913Z,1007.3
2018-05-13T13:37:36.024Z,1007.39
2018-05-13T13:38:45.175Z,1007.33
2018-05-13T13:39:54.874Z,1007.37
2018-05-13T13:41:04.300Z,1007.32
2018-05-13T13:42:13.789Z,1007.3
2018-05-13T13:43:22.806Z,1007.26
2018-05-13T13:44:32.231Z,1007.25
2018-05-13T13:45:41.382Z,1007.22
2018-05-13T13:46:50.882Z,1007.22
2018-05-13T13:48:00.416Z,1007.21
2018-05-13T13:49:09.670Z,1007.22
2018-05-13T13:50:18.893Z,1007.25
2018-05-13T13:51:29.265Z,1007.22
2018-05-13T13:52:38.176Z,1007.16
2018-05-13T13:53:47.735Z,1007.12
2018-05-13T13:54:56.696Z,1007.12
2018-05-13T13:56:06.690Z,1007.1
2018-05-13T13:57:15.856Z,1007.11
2018-05-13T13:58:25.095Z,1007.11
2018-05-13T13:59:34.793Z,1007.13
2018-05-13T14:00:44.305Z,1007.11
2018-05-13T14:01:53.855Z,1007.09
2018-05-13T14:03:03.570Z,1007.17
2018-05-13T14:04:12.785Z,1007.04
2018-05-13T14:05:22.272Z,1007.06
2018-05-13T14:06:31.725Z,1006.97